sensor_id;sensor_type;location;lat;lon;timestamp;P1;durP1;ratioP1;P2;durP2;ratioP2
71572;SDS011;59408;51.032;9.410;2023-07-13T00:01:53;6.53;;;2.83;;
71572;SDS011;59408;51.032;9.410;2023-07-13T00:04:21;6.03;;;2.58;;
71572;SDS011;59408;51.032;9.410;2023-07-13T00:06:49;8.07;;;3.25;;
71572;SDS011;59408;51.032;9.410;2023-07-13T00:09:17;8.02;;;3.30;;
71572;SDS011;59408;51.032;9.410;2023-07-13T00:11:49;6.85;;;3.33;;
71572;SDS011;59408;51.032;9.410;2023-07-13T00:14:17;8.00;;;3.30;;
71572;SDS011;59408;51.032;9.410;2023-07-13T00:16:45;7.50;;;3.07;;
71572;SDS011;59408;51.032;9.410;2023-07-13T00:19:12;8.07;;;3.30;;
71572;SDS011;59408;51.032;9.410;2023-07-13T00:21:39;8.85;;;3.58;;
71572;SDS011;59408;51.032;9.410;2023-07-13T00:24:07;7.93;;;3.08;;
71572;SDS011;59408;51.032;9.410;2023-07-13T00:26:34;7.03;;;3.08;;
71572;SDS011;59408;51.032;9.410;2023-07-13T00:29:02;8.03;;;3.03;;
71572;SDS011;59408;51.032;9.410;2023-07-13T00:31:30;8.00;;;3.33;;
71572;SDS011;59408;51.032;9.410;2023-07-13T00:33:57;6.28;;;3.05;;
71572;SDS011;59408;51.032;9.410;2023-07-13T00:36:23;7.95;;;3.10;;
71572;SDS011;59408;51.032;9.410;2023-07-13T00:38:50;7.75;;;3.20;;
71572;SDS011;59408;51.032;9.410;2023-07-13T00:41:17;6.43;;;2.93;;
71572;SDS011;59408;51.032;9.410;2023-07-13T00:43:43;8.37;;;3.10;;
71572;SDS011;59408;51.032;9.410;2023-07-13T00:46:19;8.07;;;3.17;;
71572;SDS011;59408;51.032;9.410;2023-07-13T00:48:49;7.20;;;3.20;;
71572;SDS011;59408;51.032;9.410;2023-07-13T00:51:17;10.93;;;3.78;;
71572;SDS011;59408;51.032;9.410;2023-07-13T00:53:48;7.50;;;3.17;;
71572;SDS011;59408;51.032;9.410;2023-07-13T00:56:15;6.37;;;3.10;;
71572;SDS011;59408;51.032;9.410;2023-07-13T00:58:42;8.95;;;2.90;;
71572;SDS011;59408;51.032;9.410;2023-07-13T01:01:09;6.57;;;2.70;;
71572;SDS011;59408;51.032;9.410;2023-07-13T01:03:37;6.15;;;2.88;;
71572;SDS011;59408;51.032;9.410;2023-07-13T01:06:04;5.80;;;2.25;;
71572;SDS011;59408;51.032;9.410;2023-07-13T01:08:30;6.20;;;2.47;;
71572;SDS011;59408;51.032;9.410;2023-07-13T01:10:57;7.47;;;2.73;;
71572;SDS011;59408;51.032;9.410;2023-07-13T01:13:25;5.97;;;2.55;;
71572;SDS011;59408;51.032;9.410;2023-07-13T01:15:51;6.75;;;3.00;;
71572;SDS011;59408;51.032;9.410;2023-07-13T01:18:20;7.05;;;2.70;;
71572;SDS011;59408;51.032;9.410;2023-07-13T01:20:51;6.13;;;2.47;;
71572;SDS011;59408;51.032;9.410;2023-07-13T01:23:18;6.07;;;2.60;;
71572;SDS011;59408;51.032;9.410;2023-07-13T01:25:45;5.40;;;2.42;;
71572;SDS011;59408;51.032;9.410;2023-07-13T01:28:12;6.63;;;2.50;;
71572;SDS011;59408;51.032;9.410;2023-07-13T01:30:39;6.45;;;2.50;;
71572;SDS011;59408;51.032;9.410;2023-07-13T01:33:07;7.15;;;2.17;;
71572;SDS011;59408;51.032;9.410;2023-07-13T01:35:34;6.20;;;2.03;;
71572;SDS011;59408;51.032;9.410;2023-07-13T01:38:01;5.93;;;2.13;;
71572;SDS011;59408;51.032;9.410;2023-07-13T01:40:29;6.85;;;2.20;;
71572;SDS011;59408;51.032;9.410;2023-07-13T01:42:55;5.40;;;2.28;;
71572;SDS011;59408;51.032;9.410;2023-07-13T01:45:24;6.22;;;2.63;;
71572;SDS011;59408;51.032;9.410;2023-07-13T01:47:50;8.60;;;2.47;;
71572;SDS011;59408;51.032;9.410;2023-07-13T01:50:17;7.30;;;2.87;;
71572;SDS011;59408;51.032;9.410;2023-07-13T01:52:44;5.22;;;2.20;;
71572;SDS011;59408;51.032;9.410;2023-07-13T01:55:12;6.82;;;2.75;;
71572;SDS011;59408;51.032;9.410;2023-07-13T01:57:38;6.10;;;2.67;;
71572;SDS011;59408;51.032;9.410;2023-07-13T02:00:07;6.57;;;2.45;;
71572;SDS011;59408;51.032;9.410;2023-07-13T02:02:35;6.60;;;2.73;;
71572;SDS011;59408;51.032;9.410;2023-07-13T02:05:02;8.93;;;2.88;;
71572;SDS011;59408;51.032;9.410;2023-07-13T02:07:29;5.63;;;2.45;;
71572;SDS011;59408;51.032;9.410;2023-07-13T02:09:55;5.32;;;2.30;;
71572;SDS011;59408;51.032;9.410;2023-07-13T02:12:23;5.43;;;2.33;;
71572;SDS011;59408;51.032;9.410;2023-07-13T02:14:50;5.90;;;2.70;;
71572;SDS011;59408;51.032;9.410;2023-07-13T02:17:16;5.88;;;2.88;;
71572;SDS011;59408;51.032;9.410;2023-07-13T02:19:43;5.93;;;2.60;;
71572;SDS011;59408;51.032;9.410;2023-07-13T02:22:10;5.65;;;2.42;;
71572;SDS011;59408;51.032;9.410;2023-07-13T02:24:36;7.75;;;2.70;;
71572;SDS011;59408;51.032;9.410;2023-07-13T02:27:03;5.50;;;2.40;;
71572;SDS011;59408;51.032;9.410;2023-07-13T02:29:31;6.83;;;2.80;;
71572;SDS011;59408;51.032;9.410;2023-07-13T02:31:58;7.13;;;2.90;;
71572;SDS011;59408;51.032;9.410;2023-07-13T02:34:25;7.78;;;2.78;;
71572;SDS011;59408;51.032;9.410;2023-07-13T02:36:51;6.55;;;2.65;;
71572;SDS011;59408;51.032;9.410;2023-07-13T02:39:18;6.53;;;2.42;;
71572;SDS011;59408;51.032;9.410;2023-07-13T02:41:45;7.17;;;2.87;;
71572;SDS011;59408;51.032;9.410;2023-07-13T02:44:12;6.32;;;2.58;;
71572;SDS011;59408;51.032;9.410;2023-07-13T02:46:40;6.40;;;2.53;;
71572;SDS011;59408;51.032;9.410;2023-07-13T02:49:07;6.10;;;2.45;;
71572;SDS011;59408;51.032;9.410;2023-07-13T02:51:33;5.97;;;2.60;;
71572;SDS011;59408;51.032;9.410;2023-07-13T02:54:00;6.73;;;2.40;;
71572;SDS011;59408;51.032;9.410;2023-07-13T02:56:27;7.27;;;2.60;;
71572;SDS011;59408;51.032;9.410;2023-07-13T02:58:55;6.22;;;2.65;;
71572;SDS011;59408;51.032;9.410;2023-07-13T03:01:21;6.70;;;2.55;;
71572;SDS011;59408;51.032;9.410;2023-07-13T03:03:50;6.95;;;2.65;;
71572;SDS011;59408;51.032;9.410;2023-07-13T03:06:18;6.40;;;2.70;;
71572;SDS011;59408;51.032;9.410;2023-07-13T03:08:45;5.80;;;2.57;;
71572;SDS011;59408;51.032;9.410;2023-07-13T03:11:13;5.90;;;2.23;;
71572;SDS011;59408;51.032;9.410;2023-07-13T03:13:42;6.03;;;2.60;;
71572;SDS011;59408;51.032;9.410;2023-07-13T03:16:09;6.35;;;2.55;;
71572;SDS011;59408;51.032;9.410;2023-07-13T03:18:37;7.70;;;2.47;;
71572;SDS011;59408;51.032;9.410;2023-07-13T03:21:05;6.10;;;2.55;;
71572;SDS011;59408;51.032;9.410;2023-07-13T03:23:32;6.80;;;2.50;;
71572;SDS011;59408;51.032;9.410;2023-07-13T03:26:03;5.78;;;2.40;;
71572;SDS011;59408;51.032;9.410;2023-07-13T03:28:30;5.70;;;2.67;;
71572;SDS011;59408;51.032;9.410;2023-07-13T03:31:01;8.32;;;2.67;;
71572;SDS011;59408;51.032;9.410;2023-07-13T03:33:29;5.30;;;2.50;;
71572;SDS011;59408;51.032;9.410;2023-07-13T03:35:56;6.33;;;2.40;;
71572;SDS011;59408;51.032;9.410;2023-07-13T03:38:25;8.20;;;2.70;;
71572;SDS011;59408;51.032;9.410;2023-07-13T03:40:51;6.75;;;3.08;;
71572;SDS011;59408;51.032;9.410;2023-07-13T03:43:18;6.15;;;2.80;;
71572;SDS011;59408;51.032;9.410;2023-07-13T03:45:45;6.15;;;2.58;;
71572;SDS011;59408;51.032;9.410;2023-07-13T03:48:12;6.80;;;2.70;;
71572;SDS011;59408;51.032;9.410;2023-07-13T03:50:38;6.00;;;2.83;;
71572;SDS011;59408;51.032;9.410;2023-07-13T03:53:05;5.85;;;2.70;;
71572;SDS011;59408;51.032;9.410;2023-07-13T03:55:33;6.32;;;2.70;;
71572;SDS011;59408;51.032;9.410;2023-07-13T03:58:05;5.80;;;2.60;;
71572;SDS011;59408;51.032;9.410;2023-07-13T04:00:51;7.28;;;2.75;;
71572;SDS011;59408;51.032;9.410;2023-07-13T04:03:17;7.20;;;2.50;;
71572;SDS011;59408;51.032;9.410;2023-07-13T04:05:44;6.37;;;2.70;;
71572;SDS011;59408;51.032;9.410;2023-07-13T04:08:11;7.70;;;2.80;;
71572;SDS011;59408;51.032;9.410;2023-07-13T04:10:39;7.63;;;2.58;;
71572;SDS011;59408;51.032;9.410;2023-07-13T04:13:05;5.47;;;2.40;;
71572;SDS011;59408;51.032;9.410;2023-07-13T04:15:32;6.97;;;2.92;;
71572;SDS011;59408;51.032;9.410;2023-07-13T04:17:59;6.40;;;2.60;;
71572;SDS011;59408;51.032;9.410;2023-07-13T04:20:26;5.97;;;3.00;;
71572;SDS011;59408;51.032;9.410;2023-07-13T04:22:52;7.68;;;2.72;;
71572;SDS011;59408;51.032;9.410;2023-07-13T04:25:20;6.88;;;2.70;;
71572;SDS011;59408;51.032;9.410;2023-07-13T04:27:49;6.90;;;3.13;;
71572;SDS011;59408;51.032;9.410;2023-07-13T04:30:15;7.20;;;2.83;;
71572;SDS011;59408;51.032;9.410;2023-07-13T04:32:42;7.20;;;2.77;;
71572;SDS011;59408;51.032;9.410;2023-07-13T04:35:09;7.85;;;2.65;;
71572;SDS011;59408;51.032;9.410;2023-07-13T04:37:35;6.00;;;2.88;;
71572;SDS011;59408;51.032;9.410;2023-07-13T04:40:02;7.93;;;3.10;;
71572;SDS011;59408;51.032;9.410;2023-07-13T04:42:29;5.85;;;3.10;;
71572;SDS011;59408;51.032;9.410;2023-07-13T04:44:57;6.77;;;2.83;;
71572;SDS011;59408;51.032;9.410;2023-07-13T04:47:24;6.23;;;3.10;;
71572;SDS011;59408;51.032;9.410;2023-07-13T04:49:50;6.38;;;3.08;;
71572;SDS011;59408;51.032;9.410;2023-07-13T04:52:17;7.88;;;2.78;;
71572;SDS011;59408;51.032;9.410;2023-07-13T04:54:44;8.73;;;2.92;;
71572;SDS011;59408;51.032;9.410;2023-07-13T04:57:10;8.88;;;2.85;;
71572;SDS011;59408;51.032;9.410;2023-07-13T04:59:37;6.40;;;3.00;;
71572;SDS011;59408;51.032;9.410;2023-07-13T05:02:05;8.07;;;2.53;;
71572;SDS011;59408;51.032;9.410;2023-07-13T05:04:32;8.32;;;2.85;;
71572;SDS011;59408;51.032;9.410;2023-07-13T05:06:59;7.47;;;2.85;;
71572;SDS011;59408;51.032;9.410;2023-07-13T05:09:26;6.22;;;2.80;;
71572;SDS011;59408;51.032;9.410;2023-07-13T05:11:52;5.82;;;2.63;;
71572;SDS011;59408;51.032;9.410;2023-07-13T05:14:19;6.63;;;2.57;;
71572;SDS011;59408;51.032;9.410;2023-07-13T05:16:46;7.35;;;2.63;;
71572;SDS011;59408;51.032;9.410;2023-07-13T05:19:14;6.10;;;2.65;;
71572;SDS011;59408;51.032;9.410;2023-07-13T05:21:40;7.55;;;2.53;;
71572;SDS011;59408;51.032;9.410;2023-07-13T05:24:07;8.02;;;2.58;;
71572;SDS011;59408;51.032;9.410;2023-07-13T05:26:50;8.43;;;2.60;;
71572;SDS011;59408;51.032;9.410;2023-07-13T05:29:16;8.02;;;2.85;;
71572;SDS011;59408;51.032;9.410;2023-07-13T05:31:43;5.88;;;2.60;;
71572;SDS011;59408;51.032;9.410;2023-07-13T05:34:10;6.43;;;2.30;;
71572;SDS011;59408;51.032;9.410;2023-07-13T05:36:38;5.32;;;2.03;;
71572;SDS011;59408;51.032;9.410;2023-07-13T05:39:04;7.07;;;2.23;;
71572;SDS011;59408;51.032;9.410;2023-07-13T05:41:31;5.45;;;2.00;;
71572;SDS011;59408;51.032;9.410;2023-07-13T05:43:57;6.60;;;2.25;;
71572;SDS011;59408;51.032;9.410;2023-07-13T05:46:24;7.03;;;1.90;;
71572;SDS011;59408;51.032;9.410;2023-07-13T05:48:51;7.63;;;2.03;;
71572;SDS011;59408;51.032;9.410;2023-07-13T05:51:18;6.07;;;2.10;;
71572;SDS011;59408;51.032;9.410;2023-07-13T05:53:46;5.40;;;2.10;;
71572;SDS011;59408;51.032;9.410;2023-07-13T05:56:12;7.20;;;2.10;;
71572;SDS011;59408;51.032;9.410;2023-07-13T05:58:39;7.13;;;2.35;;
71572;SDS011;59408;51.032;9.410;2023-07-13T06:01:06;7.93;;;2.67;;
71572;SDS011;59408;51.032;9.410;2023-07-13T06:03:37;8.98;;;2.90;;
71572;SDS011;59408;51.032;9.410;2023-07-13T06:06:04;6.80;;;2.20;;
71572;SDS011;59408;51.032;9.410;2023-07-13T06:08:31;6.88;;;1.80;;
71572;SDS011;59408;51.032;9.410;2023-07-13T06:11:04;7.47;;;1.92;;
71572;SDS011;59408;51.032;9.410;2023-07-13T06:13:31;5.18;;;1.42;;
71572;SDS011;59408;51.032;9.410;2023-07-13T06:15:58;8.30;;;1.67;;
71572;SDS011;59408;51.032;9.410;2023-07-13T06:18:25;5.33;;;1.33;;
71572;SDS011;59408;51.032;9.410;2023-07-13T06:20:51;6.03;;;1.48;;
71572;SDS011;59408;51.032;9.410;2023-07-13T06:23:18;5.72;;;1.67;;
71572;SDS011;59408;51.032;9.410;2023-07-13T06:25:44;6.20;;;1.63;;
71572;SDS011;59408;51.032;9.410;2023-07-13T06:28:12;6.82;;;1.38;;
71572;SDS011;59408;51.032;9.410;2023-07-13T06:30:39;5.70;;;1.20;;
71572;SDS011;59408;51.032;9.410;2023-07-13T06:33:06;6.03;;;1.30;;
71572;SDS011;59408;51.032;9.410;2023-07-13T06:35:32;7.10;;;1.48;;
71572;SDS011;59408;51.032;9.410;2023-07-13T06:37:59;6.72;;;1.30;;
71572;SDS011;59408;51.032;9.410;2023-07-13T06:40:26;5.18;;;1.35;;
71572;SDS011;59408;51.032;9.410;2023-07-13T06:42:52;6.35;;;1.50;;
71572;SDS011;59408;51.032;9.410;2023-07-13T06:45:21;5.50;;;1.50;;
71572;SDS011;59408;51.032;9.410;2023-07-13T06:47:47;4.80;;;1.23;;
71572;SDS011;59408;51.032;9.410;2023-07-13T06:50:14;5.57;;;1.30;;
71572;SDS011;59408;51.032;9.410;2023-07-13T06:52:40;5.13;;;1.35;;
71572;SDS011;59408;51.032;9.410;2023-07-13T06:55:07;6.55;;;1.75;;
71572;SDS011;59408;51.032;9.410;2023-07-13T06:57:34;6.63;;;1.50;;
71572;SDS011;59408;51.032;9.410;2023-07-13T07:00:01;4.75;;;1.40;;
71572;SDS011;59408;51.032;9.410;2023-07-13T07:02:29;5.07;;;1.20;;
71572;SDS011;59408;51.032;9.410;2023-07-13T07:04:55;5.85;;;1.38;;
71572;SDS011;59408;51.032;9.410;2023-07-13T07:07:23;5.43;;;1.30;;
71572;SDS011;59408;51.032;9.410;2023-07-13T07:09:50;5.37;;;1.67;;
71572;SDS011;59408;51.032;9.410;2023-07-13T07:12:16;4.35;;;1.10;;
71572;SDS011;59408;51.032;9.410;2023-07-13T07:14:43;3.25;;;1.00;;
71572;SDS011;59408;51.032;9.410;2023-07-13T07:17:09;4.35;;;1.00;;
71572;SDS011;59408;51.032;9.410;2023-07-13T07:19:38;4.63;;;1.40;;
71572;SDS011;59408;51.032;9.410;2023-07-13T07:22:04;6.13;;;1.20;;
71572;SDS011;59408;51.032;9.410;2023-07-13T07:24:31;4.50;;;1.10;;
71572;SDS011;59408;51.032;9.410;2023-07-13T07:26:57;6.80;;;1.55;;
71572;SDS011;59408;51.032;9.410;2023-07-13T07:29:27;5.10;;;0.90;;
71572;SDS011;59408;51.032;9.410;2023-07-13T07:31:56;6.82;;;1.45;;
71572;SDS011;59408;51.032;9.410;2023-07-13T07:34:32;5.30;;;1.00;;
71572;SDS011;59408;51.032;9.410;2023-07-13T07:37:00;5.57;;;1.30;;
71572;SDS011;59408;51.032;9.410;2023-07-13T07:39:30;5.45;;;1.30;;
71572;SDS011;59408;51.032;9.410;2023-07-13T07:41:57;5.90;;;1.25;;
71572;SDS011;59408;51.032;9.410;2023-07-13T07:44:23;5.38;;;1.13;;
71572;SDS011;59408;51.032;9.410;2023-07-13T07:46:50;7.27;;;1.30;;
71572;SDS011;59408;51.032;9.410;2023-07-13T07:49:17;4.38;;;1.27;;
71572;SDS011;59408;51.032;9.410;2023-07-13T07:51:43;9.48;;;1.63;;
71572;SDS011;59408;51.032;9.410;2023-07-13T07:54:11;4.65;;;1.05;;
71572;SDS011;59408;51.032;9.410;2023-07-13T07:56:49;5.00;;;1.15;;
71572;SDS011;59408;51.032;9.410;2023-07-13T07:59:18;5.77;;;1.17;;
71572;SDS011;59408;51.032;9.410;2023-07-13T08:01:48;4.88;;;1.05;;
71572;SDS011;59408;51.032;9.410;2023-07-13T08:04:17;3.88;;;1.10;;
71572;SDS011;59408;51.032;9.410;2023-07-13T08:06:47;3.47;;;0.80;;
71572;SDS011;59408;51.032;9.410;2023-07-13T08:09:15;6.10;;;0.90;;
71572;SDS011;59408;51.032;9.410;2023-07-13T08:11:41;4.53;;;1.00;;
71572;SDS011;59408;51.032;9.410;2023-07-13T08:14:11;5.50;;;1.10;;
71572;SDS011;59408;51.032;9.410;2023-07-13T08:16:37;3.60;;;0.90;;
71572;SDS011;59408;51.032;9.410;2023-07-13T08:19:04;5.65;;;0.80;;
71572;SDS011;59408;51.032;9.410;2023-07-13T08:21:30;4.93;;;1.17;;
71572;SDS011;59408;51.032;9.410;2023-07-13T08:23:57;5.27;;;1.10;;
71572;SDS011;59408;51.032;9.410;2023-07-13T08:26:25;4.72;;;1.10;;
71572;SDS011;59408;51.032;9.410;2023-07-13T08:28:52;6.10;;;1.20;;
71572;SDS011;59408;51.032;9.410;2023-07-13T08:31:18;3.67;;;0.90;;
71572;SDS011;59408;51.032;9.410;2023-07-13T08:33:45;4.10;;;1.00;;
71572;SDS011;59408;51.032;9.410;2023-07-13T08:36:12;3.93;;;1.00;;
71572;SDS011;59408;51.032;9.410;2023-07-13T08:38:39;4.97;;;1.17;;
71572;SDS011;59408;51.032;9.410;2023-07-13T08:41:15;3.80;;;1.10;;
71572;SDS011;59408;51.032;9.410;2023-07-13T08:43:45;3.75;;;0.82;;
71572;SDS011;59408;51.032;9.410;2023-07-13T08:46:16;4.15;;;1.20;;
71572;SDS011;59408;51.032;9.410;2023-07-13T08:48:46;4.50;;;1.20;;
71572;SDS011;59408;51.032;9.410;2023-07-13T08:51:22;3.92;;;0.80;;
71572;SDS011;59408;51.032;9.410;2023-07-13T08:54:00;5.03;;;1.10;;
71572;SDS011;59408;51.032;9.410;2023-07-13T08:56:28;4.20;;;1.00;;
71572;SDS011;59408;51.032;9.410;2023-07-13T08:58:58;5.65;;;1.10;;
71572;SDS011;59408;51.032;9.410;2023-07-13T09:01:28;5.00;;;1.17;;
71572;SDS011;59408;51.032;9.410;2023-07-13T09:04:03;5.30;;;1.00;;
71572;SDS011;59408;51.032;9.410;2023-07-13T09:06:35;3.83;;;1.00;;
71572;SDS011;59408;51.032;9.410;2023-07-13T09:09:16;4.60;;;0.98;;
71572;SDS011;59408;51.032;9.410;2023-07-13T09:12:01;5.00;;;1.20;;
71572;SDS011;59408;51.032;9.410;2023-07-13T09:14:42;3.27;;;0.93;;
71572;SDS011;59408;51.032;9.410;2023-07-13T09:17:12;4.28;;;0.88;;
71572;SDS011;59408;51.032;9.410;2023-07-13T09:19:43;4.53;;;1.10;;
71572;SDS011;59408;51.032;9.410;2023-07-13T09:22:14;5.57;;;1.17;;
71572;SDS011;59408;51.032;9.410;2023-07-13T09:24:50;4.13;;;1.13;;
71572;SDS011;59408;51.032;9.410;2023-07-13T09:27:23;5.50;;;1.00;;
71572;SDS011;59408;51.032;9.410;2023-07-13T09:29:58;3.33;;;1.08;;
71572;SDS011;59408;51.032;9.410;2023-07-13T09:32:50;4.72;;;1.00;;
71572;SDS011;59408;51.032;9.410;2023-07-13T09:35:20;4.03;;;0.93;;
71572;SDS011;59408;51.032;9.410;2023-07-13T09:37:50;3.70;;;0.82;;
71572;SDS011;59408;51.032;9.410;2023-07-13T09:40:20;4.27;;;1.10;;
71572;SDS011;59408;51.032;9.410;2023-07-13T09:42:50;4.72;;;1.10;;
71572;SDS011;59408;51.032;9.410;2023-07-13T09:45:27;5.63;;;1.15;;
71572;SDS011;59408;51.032;9.410;2023-07-13T09:47:58;4.47;;;1.08;;
71572;SDS011;59408;51.032;9.410;2023-07-13T09:50:29;5.25;;;1.00;;
71572;SDS011;59408;51.032;9.410;2023-07-13T09:52:56;4.67;;;1.03;;
71572;SDS011;59408;51.032;9.410;2023-07-13T09:55:24;3.40;;;1.00;;
71572;SDS011;59408;51.032;9.410;2023-07-13T09:57:52;3.25;;;0.77;;
71572;SDS011;59408;51.032;9.410;2023-07-13T10:00:24;2.92;;;0.80;;
71572;SDS011;59408;51.032;9.410;2023-07-13T10:03:04;4.03;;;1.20;;
71572;SDS011;59408;51.032;9.410;2023-07-13T10:05:39;3.83;;;1.10;;
71572;SDS011;59408;51.032;9.410;2023-07-13T10:08:14;4.25;;;1.02;;
71572;SDS011;59408;51.032;9.410;2023-07-13T10:10:43;3.28;;;1.15;;
71572;SDS011;59408;51.032;9.410;2023-07-13T10:13:21;5.03;;;1.20;;
71572;SDS011;59408;51.032;9.410;2023-07-13T10:15:53;3.35;;;1.23;;
71572;SDS011;59408;51.032;9.410;2023-07-13T10:18:23;3.23;;;0.93;;
71572;SDS011;59408;51.032;9.410;2023-07-13T10:20:53;2.53;;;0.85;;
71572;SDS011;59408;51.032;9.410;2023-07-13T10:23:26;3.10;;;0.90;;
71572;SDS011;59408;51.032;9.410;2023-07-13T10:26:00;3.78;;;1.00;;
71572;SDS011;59408;51.032;9.410;2023-07-13T10:28:27;3.75;;;0.90;;
71572;SDS011;59408;51.032;9.410;2023-07-13T10:30:56;2.57;;;0.60;;
71572;SDS011;59408;51.032;9.410;2023-07-13T10:33:28;3.08;;;0.93;;
71572;SDS011;59408;51.032;9.410;2023-07-13T10:35:55;2.85;;;1.10;;
71572;SDS011;59408;51.032;9.410;2023-07-13T10:38:30;3.78;;;0.90;;
71572;SDS011;59408;51.032;9.410;2023-07-13T10:40:57;3.80;;;1.10;;
71572;SDS011;59408;51.032;9.410;2023-07-13T10:43:28;3.53;;;0.70;;
71572;SDS011;59408;51.032;9.410;2023-07-13T10:45:58;3.05;;;0.80;;
71572;SDS011;59408;51.032;9.410;2023-07-13T10:48:28;4.53;;;1.20;;
71572;SDS011;59408;51.032;9.410;2023-07-13T10:50:55;4.35;;;1.02;;
71572;SDS011;59408;51.032;9.410;2023-07-13T10:53:27;2.83;;;0.93;;
71572;SDS011;59408;51.032;9.410;2023-07-13T10:55:58;3.27;;;0.93;;
71572;SDS011;59408;51.032;9.410;2023-07-13T10:58:28;3.60;;;0.88;;
71572;SDS011;59408;51.032;9.410;2023-07-13T11:01:02;4.38;;;0.93;;
71572;SDS011;59408;51.032;9.410;2023-07-13T11:03:35;2.40;;;0.80;;
71572;SDS011;59408;51.032;9.410;2023-07-13T11:06:05;2.58;;;0.80;;
71572;SDS011;59408;51.032;9.410;2023-07-13T11:08:36;3.67;;;0.80;;
71572;SDS011;59408;51.032;9.410;2023-07-13T11:11:03;2.55;;;0.88;;
71572;SDS011;59408;51.032;9.410;2023-07-13T11:14:03;2.88;;;0.80;;
71572;SDS011;59408;51.032;9.410;2023-07-13T11:16:35;2.63;;;0.80;;
71572;SDS011;59408;51.032;9.410;2023-07-13T11:22:12;2.97;;;0.80;;
71572;SDS011;59408;51.032;9.410;2023-07-13T11:24:48;3.50;;;0.80;;
71572;SDS011;59408;51.032;9.410;2023-07-13T11:27:21;4.03;;;0.90;;
71572;SDS011;59408;51.032;9.410;2023-07-13T11:30:06;3.88;;;1.10;;
71572;SDS011;59408;51.032;9.410;2023-07-13T11:32:44;3.65;;;1.10;;
71572;SDS011;59408;51.032;9.410;2023-07-13T11:35:12;2.57;;;0.70;;
71572;SDS011;59408;51.032;9.410;2023-07-13T11:37:42;3.97;;;1.00;;
71572;SDS011;59408;51.032;9.410;2023-07-13T11:40:12;4.78;;;0.95;;
71572;SDS011;59408;51.032;9.410;2023-07-13T11:42:40;2.75;;;0.80;;
71572;SDS011;59408;51.032;9.410;2023-07-13T11:45:14;2.70;;;0.80;;
71572;SDS011;59408;51.032;9.410;2023-07-13T11:47:49;3.20;;;0.80;;
71572;SDS011;59408;51.032;9.410;2023-07-13T11:50:17;3.25;;;0.80;;
71572;SDS011;59408;51.032;9.410;2023-07-13T11:52:47;3.35;;;1.25;;
71572;SDS011;59408;51.032;9.410;2023-07-13T11:55:17;3.38;;;1.00;;
71572;SDS011;59408;51.032;9.410;2023-07-13T11:57:45;4.38;;;0.82;;
71572;SDS011;59408;51.032;9.410;2023-07-13T12:00:17;3.83;;;1.10;;
71572;SDS011;59408;51.032;9.410;2023-07-13T12:02:47;3.03;;;0.90;;
71572;SDS011;59408;51.032;9.410;2023-07-13T12:05:17;3.55;;;0.95;;
71572;SDS011;59408;51.032;9.410;2023-07-13T12:07:46;3.13;;;0.80;;
71572;SDS011;59408;51.032;9.410;2023-07-13T12:10:17;4.15;;;1.00;;
71572;SDS011;59408;51.032;9.410;2023-07-13T12:12:46;2.67;;;0.90;;
71572;SDS011;59408;51.032;9.410;2023-07-13T12:15:14;3.85;;;0.88;;
71572;SDS011;59408;51.032;9.410;2023-07-13T12:17:41;3.53;;;0.70;;
71572;SDS011;59408;51.032;9.410;2023-07-13T12:20:14;3.67;;;0.82;;
71572;SDS011;59408;51.032;9.410;2023-07-13T12:22:48;3.25;;;0.80;;
71572;SDS011;59408;51.032;9.410;2023-07-13T12:25:16;3.50;;;0.90;;
71572;SDS011;59408;51.032;9.410;2023-07-13T12:27:46;5.75;;;1.20;;
71572;SDS011;59408;51.032;9.410;2023-07-13T12:30:26;6.05;;;2.20;;
71572;SDS011;59408;51.032;9.410;2023-07-13T12:32:55;5.25;;;1.58;;
71572;SDS011;59408;51.032;9.410;2023-07-13T12:35:22;4.53;;;1.42;;
71572;SDS011;59408;51.032;9.410;2023-07-13T12:37:51;2.43;;;0.70;;
71572;SDS011;59408;51.032;9.410;2023-07-13T12:40:18;2.65;;;0.80;;
71572;SDS011;59408;51.032;9.410;2023-07-13T12:42:46;3.95;;;1.00;;
71572;SDS011;59408;51.032;9.410;2023-07-13T12:45:17;3.40;;;0.80;;
71572;SDS011;59408;51.032;9.410;2023-07-13T12:47:48;2.70;;;0.80;;
71572;SDS011;59408;51.032;9.410;2023-07-13T12:50:17;3.47;;;0.87;;
71572;SDS011;59408;51.032;9.410;2023-07-13T12:52:49;3.17;;;0.85;;
71572;SDS011;59408;51.032;9.410;2023-07-13T12:55:19;3.28;;;0.80;;
71572;SDS011;59408;51.032;9.410;2023-07-13T12:57:50;3.28;;;1.02;;
71572;SDS011;59408;51.032;9.410;2023-07-13T13:00:22;3.42;;;1.20;;
71572;SDS011;59408;51.032;9.410;2023-07-13T13:02:52;3.70;;;0.93;;
71572;SDS011;59408;51.032;9.410;2023-07-13T13:05:19;3.90;;;0.90;;
71572;SDS011;59408;51.032;9.410;2023-07-13T13:07:46;4.03;;;0.80;;
71572;SDS011;59408;51.032;9.410;2023-07-13T13:10:14;3.60;;;1.00;;
71572;SDS011;59408;51.032;9.410;2023-07-13T13:12:41;3.75;;;1.10;;
71572;SDS011;59408;51.032;9.410;2023-07-13T13:15:08;3.10;;;1.00;;
71572;SDS011;59408;51.032;9.410;2023-07-13T13:17:35;4.32;;;1.10;;
71572;SDS011;59408;51.032;9.410;2023-07-13T13:20:04;3.85;;;1.30;;
71572;SDS011;59408;51.032;9.410;2023-07-13T13:22:39;3.83;;;1.10;;
71572;SDS011;59408;51.032;9.410;2023-07-13T13:25:07;3.85;;;1.15;;
71572;SDS011;59408;51.032;9.410;2023-07-13T13:27:37;3.73;;;1.10;;
71572;SDS011;59408;51.032;9.410;2023-07-13T13:30:09;5.03;;;0.90;;
71572;SDS011;59408;51.032;9.410;2023-07-13T13:32:37;3.90;;;1.00;;
71572;SDS011;59408;51.032;9.410;2023-07-13T13:35:04;3.40;;;1.00;;
71572;SDS011;59408;51.032;9.410;2023-07-13T13:37:31;4.35;;;1.27;;
71572;SDS011;59408;51.032;9.410;2023-07-13T13:39:58;4.30;;;1.07;;
71572;SDS011;59408;51.032;9.410;2023-07-13T13:42:34;4.82;;;1.00;;
71572;SDS011;59408;51.032;9.410;2023-07-13T13:45:02;4.32;;;1.40;;
71572;SDS011;59408;51.032;9.410;2023-07-13T13:47:30;3.72;;;0.95;;
71572;SDS011;59408;51.032;9.410;2023-07-13T13:49:58;5.85;;;1.30;;
71572;SDS011;59408;51.032;9.410;2023-07-13T13:52:25;3.60;;;1.00;;
71572;SDS011;59408;51.032;9.410;2023-07-13T13:54:51;5.07;;;1.00;;
71572;SDS011;59408;51.032;9.410;2023-07-13T13:57:18;5.57;;;1.10;;
71572;SDS011;59408;51.032;9.410;2023-07-13T13:59:45;3.58;;;0.90;;
71572;SDS011;59408;51.032;9.410;2023-07-13T14:02:19;3.72;;;1.50;;
71572;SDS011;59408;51.032;9.410;2023-07-13T14:04:50;3.93;;;1.13;;
71572;SDS011;59408;51.032;9.410;2023-07-13T14:07:21;3.67;;;1.00;;
71572;SDS011;59408;51.032;9.410;2023-07-13T14:09:48;3.38;;;1.15;;
71572;SDS011;59408;51.032;9.410;2023-07-13T14:12:14;4.05;;;1.20;;
71572;SDS011;59408;51.032;9.410;2023-07-13T14:14:41;4.60;;;1.40;;
71572;SDS011;59408;51.032;9.410;2023-07-13T14:17:11;4.37;;;1.07;;
71572;SDS011;59408;51.032;9.410;2023-07-13T14:19:49;3.33;;;1.15;;
71572;SDS011;59408;51.032;9.410;2023-07-13T14:22:16;4.47;;;1.10;;
71572;SDS011;59408;51.032;9.410;2023-07-13T14:24:43;3.50;;;1.10;;
71572;SDS011;59408;51.032;9.410;2023-07-13T14:27:10;3.08;;;1.10;;
71572;SDS011;59408;51.032;9.410;2023-07-13T14:29:37;4.87;;;1.07;;
71572;SDS011;59408;51.032;9.410;2023-07-13T14:32:04;3.45;;;1.20;;
71572;SDS011;59408;51.032;9.410;2023-07-13T14:34:33;3.60;;;1.00;;
71572;SDS011;59408;51.032;9.410;2023-07-13T14:36:59;3.72;;;1.13;;
71572;SDS011;59408;51.032;9.410;2023-07-13T14:39:26;3.10;;;1.10;;
71572;SDS011;59408;51.032;9.410;2023-07-13T14:41:55;5.07;;;1.30;;
71572;SDS011;59408;51.032;9.410;2023-07-13T14:44:24;3.40;;;1.00;;
71572;SDS011;59408;51.032;9.410;2023-07-13T14:46:52;3.40;;;1.10;;
71572;SDS011;59408;51.032;9.410;2023-07-13T14:49:21;3.88;;;0.90;;
71572;SDS011;59408;51.032;9.410;2023-07-13T14:51:52;5.05;;;1.00;;
71572;SDS011;59408;51.032;9.410;2023-07-13T14:54:20;3.77;;;1.30;;
71572;SDS011;59408;51.032;9.410;2023-07-13T14:56:47;3.67;;;1.17;;
71572;SDS011;59408;51.032;9.410;2023-07-13T14:59:13;3.63;;;1.13;;
71572;SDS011;59408;51.032;9.410;2023-07-13T15:01:40;4.60;;;1.20;;